createdAt,value
2023-05-04T00:02:03.697Z,11.40
2023-05-04T00:04:30.525Z,11.30
2023-05-04T00:06:57.347Z,11.20
2023-05-04T00:09:25.539Z,11.30
2023-05-04T00:11:52.232Z,11.30
2023-05-04T00:14:19.364Z,11.30
2023-05-04T00:16:46.237Z,11.30
2023-05-04T00:19:13.097Z,11.20
2023-05-04T00:21:39.827Z,11.30
2023-05-04T00:24:06.910Z,11.30
2023-05-04T00:26:35.085Z,11.20
2023-05-04T00:29:01.855Z,10.90
2023-05-04T00:31:28.616Z,10.90
2023-05-04T00:33:55.382Z,11.00
2023-05-04T00:36:22.105Z,11.10
2023-05-04T00:38:49.882Z,11.10
2023-05-04T00:41:17.521Z,11.00
2023-05-04T00:43:46.423Z,11.10
2023-05-04T00:46:13.629Z,11.10
2023-05-04T00:48:41.665Z,11.20
2023-05-04T00:51:10.121Z,11.20
2023-05-04T00:53:38.466Z,11.20
2023-05-04T00:56:07.121Z,11.20
2023-05-04T00:58:34.543Z,11.20
2023-05-04T01:01:03.516Z,11.20
2023-05-04T01:03:31.254Z,11.10
2023-05-04T01:06:07.840Z,11.10
2023-05-04T01:08:40.594Z,11.00
2023-05-04T01:11:11.364Z,11.00
2023-05-04T01:13:38.815Z,11.00
2023-05-04T01:16:07.376Z,11.00
2023-05-04T01:18:34.452Z,11.00
2023-05-04T01:21:01.248Z,10.90
2023-05-04T01:23:29.472Z,10.80
2023-05-04T01:26:03.149Z,10.80
2023-05-04T01:28:38.712Z,10.80
2023-05-04T01:31:08.013Z,10.80
2023-05-04T01:33:36.305Z,10.90
2023-05-04T01:36:03.396Z,10.90
2023-05-04T01:38:31.569Z,10.90
2023-05-04T01:40:58.288Z,10.90
2023-05-04T01:43:25.087Z,10.80
2023-05-04T01:45:51.897Z,10.80
2023-05-04T01:48:18.667Z,10.80
2023-05-04T01:50:45.383Z,10.80
2023-05-04T01:53:12.091Z,10.70
2023-05-04T01:55:40.150Z,10.80
2023-05-04T01:58:06.862Z,10.70
2023-05-04T02:00:33.600Z,10.70
2023-05-04T02:03:00.445Z,10.70
2023-05-04T02:05:27.217Z,10.80
2023-05-04T02:07:53.981Z,10.80
2023-05-04T02:10:20.675Z,10.80
2023-05-04T02:12:48.773Z,10.80
2023-05-04T02:15:15.534Z,10.80
2023-05-04T02:17:42.326Z,10.90
2023-05-04T02:20:10.273Z,10.80
2023-05-04T02:22:37.016Z,10.80
2023-05-04T02:25:04.020Z,10.70
2023-05-04T02:27:30.791Z,10.70
2023-05-04T02:29:59.380Z,10.70
2023-05-04T02:32:26.315Z,10.70
2023-05-04T02:34:53.359Z,10.70
2023-05-04T02:37:20.093Z,10.70
2023-05-04T02:39:46.815Z,10.80
2023-05-04T02:42:13.954Z,10.70
2023-05-04T02:44:40.701Z,10.70
2023-05-04T02:47:08.945Z,10.70
2023-05-04T02:49:35.798Z,10.60
2023-05-04T02:52:02.545Z,10.70
2023-05-04T02:54:29.416Z,10.60
2023-05-04T02:56:56.160Z,10.60
2023-05-04T02:59:22.897Z,10.60
2023-05-04T03:01:49.727Z,10.70
2023-05-04T03:04:17.946Z,10.60
2023-05-04T03:06:44.763Z,10.60
2023-05-04T03:09:11.462Z,10.50
2023-05-04T03:11:38.200Z,10.50
2023-05-04T03:14:04.902Z,10.50
2023-05-04T03:16:31.870Z,10.60
2023-05-04T03:18:58.600Z,10.40
2023-05-04T03:21:26.683Z,10.40
2023-05-04T03:23:53.439Z,10.40
2023-05-04T03:26:20.170Z,10.50
2023-05-04T03:28:47.070Z,10.50
2023-05-04T03:31:13.987Z,10.30
2023-05-04T03:33:40.795Z,10.40
2023-05-04T03:36:07.714Z,10.40
2023-05-04T03:38:35.845Z,10.50
2023-05-04T03:41:02.558Z,10.50
2023-05-04T03:43:29.262Z,10.40
2023-05-04T03:45:56.030Z,10.40
2023-05-04T03:48:22.756Z,10.50
2023-05-04T03:50:49.514Z,10.40
2023-05-04T03:53:16.255Z,10.40
2023-05-04T03:55:44.340Z,10.40
2023-05-04T03:58:11.087Z,10.30
2023-05-04T04:00:38.559Z,10.30
2023-05-04T04:03:05.379Z,10.30
2023-05-04T04:05:32.250Z,10.40
2023-05-04T04:07:58.953Z,10.40
2023-05-04T04:10:25.653Z,10.40
2023-05-04T04:12:53.738Z,10.40
2023-05-04T04:15:20.596Z,10.40
2023-05-04T04:17:47.378Z,10.30
2023-05-04T04:20:14.195Z,10.40
2023-05-04T04:22:40.879Z,10.40
2023-05-04T04:25:08.180Z,10.40
2023-05-04T04:27:34.934Z,10.30
2023-05-04T04:30:03.367Z,10.30
2023-05-04T04:32:30.303Z,10.30
2023-05-04T04:34:57.007Z,10.30
2023-05-04T04:37:23.764Z,10.20
2023-05-04T04:39:50.466Z,10.20
2023-05-04T04:42:17.177Z,10.20
2023-05-04T04:44:43.914Z,10.20
2023-05-04T04:47:12.003Z,10.20
2023-05-04T04:49:38.758Z,10.30
2023-05-04T04:52:05.738Z,10.30
2023-05-04T04:54:32.450Z,10.30
2023-05-04T04:56:59.181Z,10.30
2023-05-04T04:59:25.871Z,10.40
2023-05-04T05:01:52.575Z,10.30
2023-05-04T05:04:20.693Z,10.40
2023-05-04T05:06:47.452Z,10.40
2023-05-04T05:09:14.114Z,10.30
2023-05-04T05:11:40.818Z,10.40
2023-05-04T05:14:07.510Z,10.40
2023-05-04T05:16:34.292Z,10.40
2023-05-04T05:19:01.038Z,10.40
2023-05-04T05:21:30.046Z,10.40
2023-05-04T05:23:56.789Z,10.40
2023-05-04T05:26:23.491Z,10.40
2023-05-04T05:28:50.210Z,10.50
2023-05-04T05:31:16.975Z,10.50
2023-05-04T05:33:43.646Z,10.50
2023-05-04T05:36:10.344Z,10.60
2023-05-04T05:38:38.360Z,10.60
2023-05-04T05:41:05.217Z,10.60
2023-05-04T05:43:31.922Z,10.60
2023-05-04T05:45:58.700Z,10.70
2023-05-04T05:48:25.452Z,10.70
2023-05-04T05:50:52.206Z,10.70
2023-05-04T05:53:18.898Z,10.80
2023-05-04T05:55:47.751Z,10.80
2023-05-04T05:58:14.530Z,10.80
2023-05-04T06:00:41.260Z,10.80
2023-05-04T06:03:08.125Z,10.90
2023-05-04T06:05:34.989Z,10.90
2023-05-04T06:08:01.679Z,10.90
2023-05-04T06:10:28.399Z,10.90
2023-05-04T06:12:56.487Z,11.00
2023-05-04T06:15:23.204Z,11.00
2023-05-04T06:17:49.995Z,11.10
2023-05-04T06:20:16.927Z,11.10
2023-05-04T06:22:43.710Z,11.10
2023-05-04T06:25:10.622Z,11.20
2023-05-04T06:27:37.325Z,11.20
2023-05-04T06:30:06.939Z,11.20
2023-05-04T06:32:33.988Z,11.30
2023-05-04T06:35:00.808Z,11.30
2023-05-04T06:37:27.563Z,11.30
2023-05-04T06:39:54.709Z,11.40
2023-05-04T06:42:21.458Z,11.40
2023-05-04T06:44:48.246Z,11.40
2023-05-04T06:47:16.301Z,11.40
2023-05-04T06:49:43.006Z,11.50
2023-05-04T06:52:09.943Z,11.50
2023-05-04T06:54:36.674Z,11.50
2023-05-04T06:57:03.549Z,11.50
2023-05-04T06:59:30.442Z,11.60
2023-05-04T07:01:57.202Z,11.60
2023-05-04T07:04:25.264Z,11.60
2023-05-04T07:06:52.445Z,11.60
2023-05-04T07:09:19.824Z,11.70
2023-05-04T07:11:46.632Z,11.70
2023-05-04T07:14:13.335Z,11.70
2023-05-04T07:16:40.221Z,11.70
2023-05-04T07:19:07.004Z,11.80
2023-05-04T07:21:35.198Z,11.80
2023-05-04T07:24:01.934Z,11.80
2023-05-04T07:26:28.672Z,11.90
2023-05-04T07:28:55.369Z,11.90
2023-05-04T07:31:22.107Z,11.90
2023-05-04T07:33:49.457Z,11.90
2023-05-04T07:36:16.220Z,12.00
2023-05-04T07:38:44.288Z,12.00
2023-05-04T07:41:11.025Z,12.00
2023-05-04T07:43:37.724Z,12.00
2023-05-04T07:46:04.532Z,12.00
2023-05-04T07:48:33.348Z,12.10
2023-05-04T07:51:00.120Z,12.10
2023-05-04T07:53:26.868Z,12.10
2023-05-04T07:55:54.962Z,12.20
2023-05-04T07:58:21.693Z,12.20
2023-05-04T08:00:48.442Z,12.20
2023-05-04T08:03:15.483Z,12.30
2023-05-04T08:05:42.231Z,12.30
2023-05-04T08:08:09.063Z,12.30
2023-05-04T08:10:36.352Z,12.30
2023-05-04T08:13:04.547Z,12.30
2023-05-04T08:15:31.283Z,12.30
2023-05-04T08:17:58.121Z,12.30
2023-05-04T08:20:24.892Z,12.30
2023-05-04T08:22:51.645Z,12.40
2023-05-04T08:25:18.414Z,12.40
2023-05-04T08:27:45.495Z,12.50
2023-05-04T08:30:14.296Z,12.50
2023-05-04T08:32:41.282Z,12.50
2023-05-04T08:35:08.580Z,12.50
2023-05-04T08:37:35.307Z,12.50
2023-05-04T08:40:02.165Z,12.60
2023-05-04T08:42:29.986Z,12.60
2023-05-04T08:44:57.348Z,12.60
2023-05-04T08:47:26.165Z,12.60
2023-05-04T08:49:53.328Z,12.70
2023-05-04T08:52:22.310Z,12.70
2023-05-04T08:54:50.728Z,12.70
2023-05-04T08:57:17.656Z,12.70
2023-05-04T08:59:45.448Z,12.70
2023-05-04T09:02:14.090Z,12.80
2023-05-04T09:04:42.232Z,12.80
2023-05-04T09:07:09.010Z,12.90
2023-05-04T09:09:35.915Z,12.90
2023-05-04T09:12:02.690Z,12.90
2023-05-04T09:14:33.429Z,12.90
2023-05-04T09:17:00.483Z,12.90
2023-05-04T09:19:27.319Z,12.90
2023-05-04T09:21:55.356Z,12.90
2023-05-04T09:24:28.794Z,13.00
2023-05-04T09:26:55.850Z,13.00
2023-05-04T09:29:22.628Z,13.00
2023-05-04T09:31:50.798Z,13.10
2023-05-04T09:34:18.202Z,13.10
2023-05-04T09:36:44.939Z,13.10
2023-05-04T09:39:14.048Z,13.10
2023-05-04T09:41:42.069Z,13.20
2023-05-04T09:44:18.622Z,13.20
2023-05-04T09:46:52.690Z,13.20
2023-05-04T09:49:28.991Z,13.20
2023-05-04T09:51:57.071Z,13.40
2023-05-04T09:54:26.457Z,13.40
2023-05-04T09:56:59.299Z,13.30
2023-05-04T09:59:29.880Z,13.30
2023-05-04T10:02:00.434Z,13.30
2023-05-04T10:04:31.880Z,13.40
2023-05-04T10:06:59.116Z,13.40
2023-05-04T10:09:30.726Z,13.40
2023-05-04T10:12:00.394Z,13.40
2023-05-04T10:14:30.505Z,13.50
2023-05-04T10:17:07.058Z,13.50
2023-05-04T10:19:45.773Z,13.50
2023-05-04T10:22:31.052Z,13.50
2023-05-04T10:25:16.723Z,13.50
2023-05-04T10:27:51.823Z,13.60
2023-05-04T10:30:18.989Z,13.60
2023-05-04T10:32:45.873Z,13.60
2023-05-04T10:35:12.689Z,13.60
2023-05-04T10:37:50.062Z,13.60
2023-05-04T10:40:18.168Z,13.70
2023-05-04T10:42:44.914Z,13.70
2023-05-04T10:45:11.655Z,13.70
2023-05-04T10:47:38.604Z,13.70
2023-05-04T10:50:06.875Z,13.80
2023-05-04T10:52:44.950Z,13.80
2023-05-04T10:55:11.715Z,13.80
2023-05-04T10:57:47.992Z,13.80
2023-05-04T11:00:15.723Z,13.80
2023-05-04T11:02:42.851Z,13.80
2023-05-04T11:05:10.212Z,13.90
2023-05-04T11:07:38.458Z,13.90
2023-05-04T11:10:06.164Z,13.90
2023-05-04T11:12:33.099Z,13.90
2023-05-04T11:15:09.524Z,14.00
2023-05-04T11:17:45.254Z,14.10
2023-05-04T11:20:19.540Z,14.10
2023-05-04T11:22:46.341Z,14.10
2023-05-04T11:25:13.111Z,14.10
2023-05-04T11:27:39.921Z,14.10
2023-05-04T11:30:09.377Z,14.10
2023-05-04T11:32:37.098Z,14.10
2023-05-04T11:35:05.088Z,14.10
2023-05-04T11:37:38.406Z,14.20
2023-05-04T11:40:09.334Z,14.20
2023-05-04T11:42:36.990Z,14.20
2023-05-04T11:45:04.632Z,14.20
2023-05-04T11:47:33.049Z,14.20
2023-05-04T11:49:59.868Z,14.20
2023-05-04T11:52:26.713Z,14.30
2023-05-04T11:54:56.984Z,14.30
2023-05-04T11:57:23.952Z,14.30
2023-05-04T11:59:50.747Z,14.30
2023-05-04T12:02:18.082Z,14.30
2023-05-04T12:04:46.221Z,14.40
2023-05-04T12:07:12.983Z,14.40
2023-05-04T12:09:46.052Z,14.40
2023-05-04T12:12:12.770Z,14.40
2023-05-04T12:14:47.682Z,14.40
2023-05-04T12:17:14.403Z,14.40
2023-05-04T12:19:49.901Z,14.50
2023-05-04T12:22:17.176Z,14.50
2023-05-04T12:24:43.948Z,14.50
2023-05-04T12:27:13.653Z,14.50
2023-05-04T12:29:40.492Z,14.50
2023-05-04T12:32:07.501Z,14.50
2023-05-04T12:34:34.348Z,14.50
2023-05-04T12:37:02.397Z,14.60
2023-05-04T12:39:29.110Z,14.60
2023-05-04T12:41:55.837Z,14.60
2023-05-04T12:44:22.550Z,14.60
2023-05-04T12:46:49.359Z,14.60
2023-05-04T12:49:16.062Z,14.60
2023-05-04T12:51:42.853Z,14.60
2023-05-04T12:54:10.944Z,14.70
2023-05-04T12:56:37.688Z,14.70
2023-05-04T12:59:04.378Z,14.70
2023-05-04T13:01:31.326Z,14.70
2023-05-04T13:03:58.175Z,14.70
2023-05-04T13:06:24.976Z,14.70
2023-05-04T13:08:51.748Z,14.70
2023-05-04T13:11:19.802Z,14.70
2023-05-04T13:13:46.580Z,14.80
2023-05-04T13:16:13.709Z,14.80
2023-05-04T13:18:40.439Z,14.80
2023-05-04T13:21:07.171Z,14.80
2023-05-04T13:23:33.891Z,14.80
2023-05-04T13:26:00.582Z,14.80
2023-05-04T13:28:28.620Z,14.90
2023-05-04T13:30:55.617Z,14.90
2023-05-04T13:35:54.462Z,14.90
2023-05-04T13:38:21.143Z,14.90
2023-05-04T13:40:48.152Z,14.90
2023-05-04T13:43:14.838Z,14.90
2023-05-04T13:45:42.899Z,14.90
2023-05-04T13:48:09.735Z,14.90
2023-05-04T13:50:36.481Z,15.00
2023-05-04T13:53:03.221Z,15.00
2023-05-04T13:55:29.923Z,15.00
2023-05-04T13:57:56.756Z,15.00
2023-05-04T14:00:23.597Z,15.10
2023-05-04T14:02:51.973Z,15.10
2023-05-04T14:05:19.010Z,15.10
2023-05-04T14:07:45.899Z,15.10
2023-05-04T14:10:12.691Z,15.10
2023-05-04T14:12:39.446Z,15.10
2023-05-04T14:15:07.427Z,15.10
2023-05-04T14:17:34.366Z,15.20
2023-05-04T14:20:02.524Z,15.20
2023-05-04T14:22:29.275Z,15.20
2023-05-04T14:24:56.196Z,15.20
2023-05-04T14:27:22.891Z,15.20
2023-05-04T14:29:49.643Z,15.20
2023-05-04T14:32:16.456Z,15.20
2023-05-04T14:34:43.316Z,15.30
2023-05-04T14:37:11.407Z,15.30
2023-05-04T14:39:38.127Z,15.30
2023-05-04T14:42:04.994Z,15.30
2023-05-04T14:44:31.892Z,15.30
2023-05-04T14:46:58.633Z,15.30
2023-05-04T14:49:36.571Z,15.30
2023-05-04T14:52:04.533Z,15.30
2023-05-04T14:54:32.688Z,15.30
2023-05-04T14:56:59.471Z,15.40
2023-05-04T14:59:26.311Z,15.40
2023-05-04T15:01:53.178Z,15.40
2023-05-04T15:04:19.960Z,15.40
2023-05-04T15:06:46.660Z,15.40
2023-05-04T15:09:13.402Z,15.40
2023-05-04T15:11:41.420Z,15.40
2023-05-04T15:14:08.156Z,15.50
2023-05-04T15:16:35.009Z,15.50
2023-05-04T15:19:01.798Z,15.50
2023-05-04T15:21:28.536Z,15.50
2023-05-04T15:23:55.247Z,15.50
2023-05-04T15:26:21.951Z,15.50
2023-05-04T15:28:51.539Z,15.50
2023-05-04T15:31:19.578Z,15.50
2023-05-04T15:33:46.293Z,15.50
2023-05-04T15:36:12.998Z,15.50
2023-05-04T15:38:39.681Z,15.50
2023-05-04T15:41:06.656Z,15.60
2023-05-04T15:43:33.961Z,15.60
2023-05-04T15:46:02.257Z,15.60
2023-05-04T15:48:29.022Z,15.60
2023-05-04T15:50:56.140Z,15.60
2023-05-04T15:53:23.010Z,15.60
2023-05-04T15:55:51.048Z,15.60
2023-05-04T15:58:17.818Z,15.70
2023-05-04T16:00:44.734Z,15.70
2023-05-04T16:03:12.902Z,15.70
2023-05-04T16:05:39.771Z,15.70
2023-05-04T16:08:06.474Z,15.70
2023-05-04T16:10:33.753Z,15.70
2023-05-04T16:13:00.571Z,15.70
2023-05-04T16:15:27.427Z,15.70
2023-05-04T16:17:54.306Z,15.70
2023-05-04T16:20:22.578Z,15.70
2023-05-04T16:22:49.292Z,15.70
2023-05-04T16:25:16.221Z,15.70
2023-05-04T16:27:43.339Z,15.70
2023-05-04T16:30:11.022Z,15.70
2023-05-04T16:32:37.917Z,15.70
2023-05-04T16:35:05.448Z,15.70
2023-05-04T16:37:35.275Z,15.70
2023-05-04T16:40:09.371Z,15.70
2023-05-04T16:42:36.033Z,15.70
2023-05-04T16:45:02.751Z,15.70
2023-05-04T16:47:29.515Z,15.70
2023-05-04T16:49:56.211Z,15.70
2023-05-04T16:52:22.927Z,15.70
2023-05-04T16:54:50.955Z,15.60
2023-05-04T16:57:17.622Z,15.70
2023-05-04T16:59:44.316Z,15.60
2023-05-04T17:02:11.039Z,15.70
2023-05-04T17:04:37.738Z,15.60
2023-05-04T17:07:04.495Z,15.70
2023-05-04T17:09:31.236Z,15.60
2023-05-04T17:11:59.317Z,15.60
2023-05-04T17:14:26.234Z,15.60
2023-05-04T17:16:53.228Z,15.60
2023-05-04T17:19:20.032Z,15.60
2023-05-04T17:21:46.747Z,15.60
2023-05-04T17:24:13.490Z,15.70
2023-05-04T17:26:40.203Z,15.60
2023-05-04T17:29:08.543Z,15.60
2023-05-04T17:31:35.337Z,15.60
2023-05-04T17:34:02.097Z,15.70
2023-05-04T17:36:28.907Z,15.60
2023-05-04T17:38:55.635Z,15.60
2023-05-04T17:41:22.483Z,15.60
2023-05-04T17:43:49.212Z,15.60
2023-05-04T17:46:17.348Z,15.60
2023-05-04T17:48:44.163Z,15.70
2023-05-04T17:51:10.876Z,15.60
2023-05-04T17:53:37.598Z,15.60
2023-05-04T17:56:04.703Z,15.60
2023-05-04T17:58:31.396Z,15.60
2023-05-04T18:00:58.131Z,15.60
2023-05-04T18:03:26.287Z,15.60
2023-05-04T18:05:55.954Z,15.60
2023-05-04T18:08:22.661Z,15.60
2023-05-04T18:10:49.429Z,15.60
2023-05-04T18:13:16.271Z,15.60
2023-05-04T18:15:43.159Z,15.60
2023-05-04T18:18:09.923Z,15.60
2023-05-04T18:20:38.035Z,15.60
2023-05-04T18:23:04.719Z,15.60
2023-05-04T18:25:31.439Z,15.60
2023-05-04T18:27:58.159Z,15.50
2023-05-04T18:30:24.963Z,15.50
2023-05-04T18:32:51.685Z,15.50
2023-05-04T18:35:18.545Z,15.60
2023-05-04T18:37:46.632Z,15.50
2023-05-04T18:40:13.498Z,15.50
2023-05-04T18:42:40.261Z,15.60
2023-05-04T18:45:08.406Z,15.60
2023-05-04T18:47:35.414Z,15.50
2023-05-04T18:50:02.157Z,15.50
2023-05-04T18:52:28.937Z,15.50
2023-05-04T18:54:57.015Z,15.50
2023-05-04T18:57:23.822Z,15.50
2023-05-04T18:59:50.551Z,15.50
2023-05-04T19:02:17.302Z,15.50
2023-05-04T19:04:44.042Z,15.40
2023-05-04T19:07:10.767Z,15.40
2023-05-04T19:09:37.587Z,15.40
2023-05-04T19:12:06.272Z,15.40
2023-05-04T19:14:33.097Z,15.30
2023-05-04T19:17:00.130Z,15.30
2023-05-04T19:19:26.862Z,15.30
2023-05-04T19:21:53.694Z,15.30
2023-05-04T19:24:20.431Z,15.30
2023-05-04T19:26:47.127Z,15.30
2023-05-04T19:29:15.208Z,15.20
2023-05-04T19:31:42.032Z,15.20
2023-05-04T19:34:08.850Z,15.20
2023-05-04T19:36:35.600Z,15.20
2023-05-04T19:39:02.459Z,15.20
2023-05-04T19:41:29.234Z,15.20
2023-05-04T19:43:55.982Z,15.10
2023-05-04T19:46:24.047Z,15.10
2023-05-04T19:48:50.846Z,15.10
2023-05-04T19:51:17.585Z,15.00
2023-05-04T19:53:44.315Z,15.00
2023-05-04T19:56:11.052Z,15.10
2023-05-04T19:58:37.771Z,15.00
2023-05-04T20:01:04.536Z,15.00
2023-05-04T20:03:32.613Z,15.00
2023-05-04T20:05:59.355Z,15.00
2023-05-04T20:08:26.063Z,14.90
2023-05-04T20:10:52.781Z,14.90
2023-05-04T20:13:19.574Z,14.90
2023-05-04T20:15:46.358Z,14.90
2023-05-04T20:18:13.067Z,14.90
2023-05-04T20:20:41.142Z,14.80
2023-05-04T20:23:07.889Z,14.80
2023-05-04T20:25:34.586Z,14.80
2023-05-04T20:28:01.263Z,14.80
2023-05-04T20:30:28.006Z,14.80
2023-05-04T20:32:54.915Z,14.80
2023-05-04T20:35:21.652Z,14.70
2023-05-04T20:37:49.743Z,14.70
2023-05-04T20:40:16.609Z,14.70
2023-05-04T20:42:43.311Z,14.70
2023-05-04T20:45:10.455Z,14.70
2023-05-04T20:47:37.824Z,14.70
2023-05-04T20:50:05.694Z,14.70
2023-05-04T20:52:32.595Z,14.60
2023-05-04T20:55:00.733Z,14.60
2023-05-04T20:57:27.590Z,14.60
2023-05-04T20:59:54.425Z,14.60
2023-05-04T21:02:21.107Z,14.50
2023-05-04T21:04:47.942Z,14.50
2023-05-04T21:07:14.703Z,14.50
2023-05-04T21:09:41.430Z,14.50
2023-05-04T21:12:09.702Z,14.50
2023-05-04T21:14:36.454Z,14.40
2023-05-04T21:17:03.294Z,14.40
2023-05-04T21:19:30.060Z,14.30
2023-05-04T21:21:56.798Z,14.40
2023-05-04T21:24:23.496Z,14.30
2023-05-04T21:26:50.443Z,14.30
2023-05-04T21:29:18.489Z,14.30
2023-05-04T21:31:45.262Z,14.20
2023-05-04T21:34:12.091Z,14.00
2023-05-04T21:36:38.794Z,14.10
2023-05-04T21:39:05.531Z,14.10
2023-05-04T21:41:32.232Z,14.10
2023-05-04T21:43:58.934Z,14.00
2023-05-04T21:46:27.042Z,14.10
2023-05-04T21:48:53.789Z,14.20
2023-05-04T21:51:21.053Z,14.20
2023-05-04T21:53:47.915Z,14.20
2023-05-04T21:56:14.763Z,14.20
2023-05-04T21:58:41.499Z,14.10
2023-05-04T22:01:08.795Z,14.10
2023-05-04T22:03:36.953Z,14.10
2023-05-04T22:06:04.246Z,14.00
2023-05-04T22:08:30.949Z,14.00
2023-05-04T22:10:57.986Z,14.00
2023-05-04T22:13:25.253Z,14.00
2023-05-04T22:15:52.155Z,13.90
2023-05-04T22:18:19.095Z,13.90
2023-05-04T22:20:47.276Z,13.90
2023-05-04T22:23:14.391Z,13.90
2023-05-04T22:25:41.233Z,13.90
2023-05-04T22:28:08.007Z,13.80
2023-05-04T22:30:34.807Z,13.80
2023-05-04T22:33:01.866Z,13.80
2023-05-04T22:35:28.744Z,13.70
2023-05-04T22:37:56.974Z,13.70
2023-05-04T22:40:23.747Z,13.70
2023-05-04T22:42:50.423Z,13.70
2023-05-04T22:45:17.116Z,13.70
2023-05-04T22:47:44.360Z,13.70
2023-05-04T22:50:11.283Z,13.70
2023-05-04T22:52:38.187Z,13.70
2023-05-04T22:55:07.580Z,13.60
2023-05-04T22:57:34.291Z,13.70
2023-05-04T23:00:01.050Z,13.70
2023-05-04T23:02:27.950Z,13.60
2023-05-04T23:04:54.716Z,13.60
2023-05-04T23:07:21.408Z,13.50
2023-05-04T23:09:48.095Z,13.50
2023-05-04T23:12:16.155Z,13.50
2023-05-04T23:14:42.848Z,13.50
2023-05-04T23:17:09.550Z,13.50
2023-05-04T23:19:36.535Z,13.50
2023-05-04T23:22:03.288Z,13.40
2023-05-04T23:24:29.963Z,13.40
2023-05-04T23:26:56.698Z,13.40
2023-05-04T23:29:24.741Z,13.40
2023-05-04T23:31:51.803Z,13.30
2023-05-04T23:34:18.609Z,13.30
2023-05-04T23:36:45.396Z,13.30
2023-05-04T23:39:12.123Z,13.30
2023-05-04T23:41:38.788Z,13.30
2023-05-04T23:44:05.462Z,13.20
2023-05-04T23:46:33.540Z,13.20
2023-05-04T23:49:00.238Z,13.30
2023-05-04T23:51:26.936Z,13.20
2023-05-04T23:53:53.714Z,13.20
2023-05-04T23:56:20.427Z,13.20
2023-05-04T23:58:47.099Z,13.10
